sensor_id;sensor_type;location;lat;lon;timestamp;P1;durP1;ratioP1;P2;durP2;ratioP2
63738;SDS011;68816;45.558;10.070;2024-02-04T00:01:19;126.00;;;68.50;;
63738;SDS011;68816;45.558;10.070;2024-02-04T00:03:44;119.22;;;66.40;;
63738;SDS011;68816;45.558;10.070;2024-02-04T00:06:10;125.63;;;69.28;;
63738;SDS011;68816;45.558;10.070;2024-02-04T00:08:35;127.55;;;70.45;;
63738;SDS011;68816;45.558;10.070;2024-02-04T00:11:01;125.60;;;66.47;;
63738;SDS011;68816;45.558;10.070;2024-02-04T00:13:29;121.15;;;66.07;;
63738;SDS011;68816;45.558;10.070;2024-02-04T00:15:55;117.40;;;66.07;;
63738;SDS011;68816;45.558;10.070;2024-02-04T00:18:23;122.95;;;65.22;;
63738;SDS011;68816;45.558;10.070;2024-02-04T00:20:49;122.10;;;66.63;;
63738;SDS011;68816;45.558;10.070;2024-02-04T00:23:14;127.78;;;66.53;;
63738;SDS011;68816;45.558;10.070;2024-02-04T00:25:40;121.50;;;65.53;;
63738;SDS011;68816;45.558;10.070;2024-02-04T00:28:06;121.20;;;66.65;;
63738;SDS011;68816;45.558;10.070;2024-02-04T00:30:32;120.57;;;67.28;;
63738;SDS011;68816;45.558;10.070;2024-02-04T00:32:57;125.22;;;68.28;;
63738;SDS011;68816;45.558;10.070;2024-02-04T00:35:28;124.40;;;67.43;;
63738;SDS011;68816;45.558;10.070;2024-02-04T00:37:53;126.63;;;68.05;;
63738;SDS011;68816;45.558;10.070;2024-02-04T00:40:19;127.82;;;67.97;;
63738;SDS011;68816;45.558;10.070;2024-02-04T00:42:44;126.60;;;66.35;;
63738;SDS011;68816;45.558;10.070;2024-02-04T00:45:10;122.60;;;66.43;;
63738;SDS011;68816;45.558;10.070;2024-02-04T00:47:35;121.95;;;65.40;;
63738;SDS011;68816;45.558;10.070;2024-02-04T00:50:01;127.43;;;67.13;;
63738;SDS011;68816;45.558;10.070;2024-02-04T00:52:27;128.68;;;67.95;;
63738;SDS011;68816;45.558;10.070;2024-02-04T00:54:52;122.88;;;68.95;;
63738;SDS011;68816;45.558;10.070;2024-02-04T00:57:18;121.78;;;65.45;;
63738;SDS011;68816;45.558;10.070;2024-02-04T00:59:43;129.02;;;67.68;;
63738;SDS011;68816;45.558;10.070;2024-02-04T01:02:08;128.30;;;67.70;;
63738;SDS011;68816;45.558;10.070;2024-02-04T01:04:34;127.70;;;67.03;;
63738;SDS011;68816;45.558;10.070;2024-02-04T01:07:00;124.50;;;66.65;;
63738;SDS011;68816;45.558;10.070;2024-02-04T01:09:25;129.73;;;67.18;;
63738;SDS011;68816;45.558;10.070;2024-02-04T01:11:51;125.47;;;66.15;;
63738;SDS011;68816;45.558;10.070;2024-02-04T01:14:18;122.00;;;64.43;;
63738;SDS011;68816;45.558;10.070;2024-02-04T01:16:43;124.45;;;65.20;;
63738;SDS011;68816;45.558;10.070;2024-02-04T01:19:09;119.65;;;62.95;;
63738;SDS011;68816;45.558;10.070;2024-02-04T01:21:35;124.32;;;64.20;;
63738;SDS011;68816;45.558;10.070;2024-02-04T01:24:00;115.25;;;61.88;;
63738;SDS011;68816;45.558;10.070;2024-02-04T01:26:26;120.18;;;63.53;;
63738;SDS011;68816;45.558;10.070;2024-02-04T01:28:51;125.10;;;64.07;;
63738;SDS011;68816;45.558;10.070;2024-02-04T01:31:17;115.35;;;61.95;;
63738;SDS011;68816;45.558;10.070;2024-02-04T01:33:42;114.60;;;61.83;;
63738;SDS011;68816;45.558;10.070;2024-02-04T01:36:07;118.03;;;61.83;;
63738;SDS011;68816;45.558;10.070;2024-02-04T01:38:33;118.57;;;63.17;;
63738;SDS011;68816;45.558;10.070;2024-02-04T01:40:58;121.68;;;63.20;;
63738;SDS011;68816;45.558;10.070;2024-02-04T01:43:24;114.07;;;62.47;;
63738;SDS011;68816;45.558;10.070;2024-02-04T01:45:50;111.32;;;61.72;;
63738;SDS011;68816;45.558;10.070;2024-02-04T01:48:19;123.18;;;63.30;;
63738;SDS011;68816;45.558;10.070;2024-02-04T01:56:35;108.35;;;58.60;;
63738;SDS011;68816;45.558;10.070;2024-02-04T01:59:01;114.65;;;60.97;;
63738;SDS011;68816;45.558;10.070;2024-02-04T02:01:27;111.47;;;60.78;;
63738;SDS011;68816;45.558;10.070;2024-02-04T02:03:53;115.80;;;58.85;;
63738;SDS011;68816;45.558;10.070;2024-02-04T02:06:19;111.50;;;58.53;;
63738;SDS011;68816;45.558;10.070;2024-02-04T02:08:45;114.43;;;60.00;;
63738;SDS011;68816;45.558;10.070;2024-02-04T02:11:21;116.30;;;59.42;;
63738;SDS011;68816;45.558;10.070;2024-02-04T02:13:57;117.18;;;60.00;;
63738;SDS011;68816;45.558;10.070;2024-02-04T02:16:26;111.70;;;58.35;;
63738;SDS011;68816;45.558;10.070;2024-02-04T02:18:59;112.97;;;60.30;;
63738;SDS011;68816;45.558;10.070;2024-02-04T02:21:50;116.05;;;59.83;;
63738;SDS011;68816;45.558;10.070;2024-02-04T02:26:49;117.55;;;60.38;;
63738;SDS011;68816;45.558;10.070;2024-02-04T02:29:15;117.38;;;59.40;;
63738;SDS011;68816;45.558;10.070;2024-02-04T02:31:41;112.00;;;59.58;;
63738;SDS011;68816;45.558;10.070;2024-02-04T02:34:08;109.45;;;58.05;;
63738;SDS011;68816;45.558;10.070;2024-02-04T02:36:43;117.88;;;60.03;;
63738;SDS011;68816;45.558;10.070;2024-02-04T02:39:24;117.03;;;59.85;;
63738;SDS011;68816;45.558;10.070;2024-02-04T02:41:56;114.68;;;59.00;;
63738;SDS011;68816;45.558;10.070;2024-02-04T02:44:27;111.45;;;60.80;;
63738;SDS011;68816;45.558;10.070;2024-02-04T02:46:57;119.40;;;60.42;;
63738;SDS011;68816;45.558;10.070;2024-02-04T02:49:25;111.75;;;60.03;;
63738;SDS011;68816;45.558;10.070;2024-02-04T02:51:51;111.82;;;59.05;;
63738;SDS011;68816;45.558;10.070;2024-02-04T02:54:18;109.53;;;59.28;;
63738;SDS011;68816;45.558;10.070;2024-02-04T02:56:43;115.55;;;62.08;;
63738;SDS011;68816;45.558;10.070;2024-02-04T02:59:09;114.25;;;59.55;;
63738;SDS011;68816;45.558;10.070;2024-02-04T03:01:38;112.60;;;58.90;;
63738;SDS011;68816;45.558;10.070;2024-02-04T03:04:04;114.85;;;59.38;;
63738;SDS011;68816;45.558;10.070;2024-02-04T03:06:30;108.95;;;59.53;;
63738;SDS011;68816;45.558;10.070;2024-02-04T03:08:58;111.03;;;59.10;;
63738;SDS011;68816;45.558;10.070;2024-02-04T03:11:24;117.43;;;60.38;;
63738;SDS011;68816;45.558;10.070;2024-02-04T03:13:49;113.82;;;61.22;;
63738;SDS011;68816;45.558;10.070;2024-02-04T03:16:16;120.30;;;61.90;;
63738;SDS011;68816;45.558;10.070;2024-02-04T03:18:42;120.47;;;61.60;;
63738;SDS011;68816;45.558;10.070;2024-02-04T03:21:14;114.72;;;59.50;;
63738;SDS011;68816;45.558;10.070;2024-02-04T03:23:41;106.47;;;57.72;;
63738;SDS011;68816;45.558;10.070;2024-02-04T03:26:08;113.03;;;59.00;;
63738;SDS011;68816;45.558;10.070;2024-02-04T03:28:34;119.68;;;58.80;;
63738;SDS011;68816;45.558;10.070;2024-02-04T03:31:00;112.63;;;59.40;;
63738;SDS011;68816;45.558;10.070;2024-02-04T03:33:26;110.82;;;58.65;;
63738;SDS011;68816;45.558;10.070;2024-02-04T03:35:52;109.32;;;57.17;;
63738;SDS011;68816;45.558;10.070;2024-02-04T03:38:17;110.78;;;57.45;;
63738;SDS011;68816;45.558;10.070;2024-02-04T03:40:43;107.10;;;56.65;;
63738;SDS011;68816;45.558;10.070;2024-02-04T03:43:10;111.35;;;57.90;;
63738;SDS011;68816;45.558;10.070;2024-02-04T03:45:35;114.05;;;57.33;;
63738;SDS011;68816;45.558;10.070;2024-02-04T03:48:01;106.93;;;57.35;;
63738;SDS011;68816;45.558;10.070;2024-02-04T03:50:28;109.03;;;56.55;;
63738;SDS011;68816;45.558;10.070;2024-02-04T03:52:54;115.97;;;57.28;;
63738;SDS011;68816;45.558;10.070;2024-02-04T03:55:20;110.18;;;57.65;;
63738;SDS011;68816;45.558;10.070;2024-02-04T03:57:45;108.05;;;56.90;;
63738;SDS011;68816;45.558;10.070;2024-02-04T04:00:11;112.32;;;57.15;;
63738;SDS011;68816;45.558;10.070;2024-02-04T04:02:37;106.95;;;56.33;;
63738;SDS011;68816;45.558;10.070;2024-02-04T04:05:03;113.82;;;58.03;;
63738;SDS011;68816;45.558;10.070;2024-02-04T04:07:30;111.30;;;56.75;;
63738;SDS011;68816;45.558;10.070;2024-02-04T04:09:56;115.70;;;59.53;;
63738;SDS011;68816;45.558;10.070;2024-02-04T04:12:21;123.25;;;61.58;;
63738;SDS011;68816;45.558;10.070;2024-02-04T04:14:47;116.63;;;60.22;;
63738;SDS011;68816;45.558;10.070;2024-02-04T04:17:12;110.57;;;59.13;;
63738;SDS011;68816;45.558;10.070;2024-02-04T04:19:38;117.18;;;59.55;;
63738;SDS011;68816;45.558;10.070;2024-02-04T04:22:04;123.50;;;61.55;;
63738;SDS011;68816;45.558;10.070;2024-02-04T04:24:30;117.43;;;59.28;;
63738;SDS011;68816;45.558;10.070;2024-02-04T04:26:56;116.70;;;59.72;;
63738;SDS011;68816;45.558;10.070;2024-02-04T04:29:21;117.25;;;59.63;;
63738;SDS011;68816;45.558;10.070;2024-02-04T04:31:47;121.53;;;59.33;;
63738;SDS011;68816;45.558;10.070;2024-02-04T04:34:13;117.70;;;57.65;;
63738;SDS011;68816;45.558;10.070;2024-02-04T04:36:39;113.68;;;58.22;;
63738;SDS011;68816;45.558;10.070;2024-02-04T04:39:04;113.72;;;57.88;;
63738;SDS011;68816;45.558;10.070;2024-02-04T04:41:31;113.90;;;56.50;;
63738;SDS011;68816;45.558;10.070;2024-02-04T04:43:56;112.38;;;56.30;;
63738;SDS011;68816;45.558;10.070;2024-02-04T04:46:22;115.35;;;56.97;;
63738;SDS011;68816;45.558;10.070;2024-02-04T04:48:48;117.63;;;59.17;;
63738;SDS011;68816;45.558;10.070;2024-02-04T04:51:13;120.03;;;59.60;;
63738;SDS011;68816;45.558;10.070;2024-02-04T04:53:39;113.47;;;57.80;;
63738;SDS011;68816;45.558;10.070;2024-02-04T04:56:05;121.22;;;59.53;;
63738;SDS011;68816;45.558;10.070;2024-02-04T04:58:31;123.03;;;59.45;;
63738;SDS011;68816;45.558;10.070;2024-02-04T05:00:57;117.95;;;58.63;;
63738;SDS011;68816;45.558;10.070;2024-02-04T05:03:22;120.68;;;61.15;;
63738;SDS011;68816;45.558;10.070;2024-02-04T05:05:48;126.68;;;62.03;;
63738;SDS011;68816;45.558;10.070;2024-02-04T05:08:14;126.07;;;63.40;;
63738;SDS011;68816;45.558;10.070;2024-02-04T05:10:40;126.25;;;61.17;;
63738;SDS011;68816;45.558;10.070;2024-02-04T05:13:06;127.53;;;62.75;;
63738;SDS011;68816;45.558;10.070;2024-02-04T05:15:32;120.85;;;60.28;;
63738;SDS011;68816;45.558;10.070;2024-02-04T05:17:59;127.30;;;62.38;;
63738;SDS011;68816;45.558;10.070;2024-02-04T05:20:25;130.73;;;62.03;;
63738;SDS011;68816;45.558;10.070;2024-02-04T05:22:51;129.35;;;64.10;;
63738;SDS011;68816;45.558;10.070;2024-02-04T05:25:16;132.02;;;64.07;;
63738;SDS011;68816;45.558;10.070;2024-02-04T05:27:42;129.30;;;63.92;;
63738;SDS011;68816;45.558;10.070;2024-02-04T05:30:08;134.05;;;64.57;;
63738;SDS011;68816;45.558;10.070;2024-02-04T05:32:34;137.82;;;66.20;;
63738;SDS011;68816;45.558;10.070;2024-02-04T05:35:00;137.57;;;66.70;;
63738;SDS011;68816;45.558;10.070;2024-02-04T05:37:26;128.30;;;63.00;;
63738;SDS011;68816;45.558;10.070;2024-02-04T05:39:52;132.02;;;66.22;;
63738;SDS011;68816;45.558;10.070;2024-02-04T05:42:17;136.85;;;67.63;;
63738;SDS011;68816;45.558;10.070;2024-02-04T05:44:43;137.55;;;68.97;;
63738;SDS011;68816;45.558;10.070;2024-02-04T05:47:08;133.77;;;66.25;;
63738;SDS011;68816;45.558;10.070;2024-02-04T05:49:34;135.27;;;66.82;;
63738;SDS011;68816;45.558;10.070;2024-02-04T05:52:00;136.05;;;66.25;;
63738;SDS011;68816;45.558;10.070;2024-02-04T05:54:25;136.05;;;68.28;;
63738;SDS011;68816;45.558;10.070;2024-02-04T05:56:51;135.45;;;67.13;;
63738;SDS011;68816;45.558;10.070;2024-02-04T05:59:17;139.63;;;67.82;;
63738;SDS011;68816;45.558;10.070;2024-02-04T06:01:42;133.95;;;65.20;;
63738;SDS011;68816;45.558;10.070;2024-02-04T06:04:08;132.10;;;65.38;;
63738;SDS011;68816;45.558;10.070;2024-02-04T06:06:34;134.15;;;67.85;;
63738;SDS011;68816;45.558;10.070;2024-02-04T06:09:00;129.75;;;64.22;;
63738;SDS011;68816;45.558;10.070;2024-02-04T06:11:25;125.28;;;62.55;;
63738;SDS011;68816;45.558;10.070;2024-02-04T06:13:51;126.43;;;64.82;;
63738;SDS011;68816;45.558;10.070;2024-02-04T06:16:17;135.32;;;64.43;;
63738;SDS011;68816;45.558;10.070;2024-02-04T06:18:42;124.00;;;63.08;;
63738;SDS011;68816;45.558;10.070;2024-02-04T06:21:08;122.72;;;59.92;;
63738;SDS011;68816;45.558;10.070;2024-02-04T06:23:34;114.05;;;58.60;;
63738;SDS011;68816;45.558;10.070;2024-02-04T06:26:00;123.20;;;57.95;;
63738;SDS011;68816;45.558;10.070;2024-02-04T06:28:25;118.45;;;60.10;;
63738;SDS011;68816;45.558;10.070;2024-02-04T06:30:51;116.82;;;56.58;;
63738;SDS011;68816;45.558;10.070;2024-02-04T06:33:17;114.18;;;58.17;;
63738;SDS011;68816;45.558;10.070;2024-02-04T06:35:42;115.30;;;56.08;;
63738;SDS011;68816;45.558;10.070;2024-02-04T06:38:08;110.00;;;56.47;;
63738;SDS011;68816;45.558;10.070;2024-02-04T06:40:34;113.85;;;55.90;;
63738;SDS011;68816;45.558;10.070;2024-02-04T06:42:59;113.18;;;55.55;;
63738;SDS011;68816;45.558;10.070;2024-02-04T06:45:25;111.55;;;54.88;;
63738;SDS011;68816;45.558;10.070;2024-02-04T06:47:50;104.05;;;53.63;;
63738;SDS011;68816;45.558;10.070;2024-02-04T06:50:16;108.40;;;54.42;;
63738;SDS011;68816;45.558;10.070;2024-02-04T06:52:45;110.18;;;53.17;;
63738;SDS011;68816;45.558;10.070;2024-02-04T06:55:11;105.55;;;54.17;;
63738;SDS011;68816;45.558;10.070;2024-02-04T06:57:37;98.22;;;52.28;;
63738;SDS011;68816;45.558;10.070;2024-02-04T07:00:03;107.18;;;52.95;;
63738;SDS011;68816;45.558;10.070;2024-02-04T07:02:35;107.65;;;53.38;;
63738;SDS011;68816;45.558;10.070;2024-02-04T07:05:01;109.57;;;53.00;;
63738;SDS011;68816;45.558;10.070;2024-02-04T07:07:27;105.18;;;53.50;;
63738;SDS011;68816;45.558;10.070;2024-02-04T07:09:52;107.22;;;52.95;;
63738;SDS011;68816;45.558;10.070;2024-02-04T07:12:18;102.78;;;53.38;;
63738;SDS011;68816;45.558;10.070;2024-02-04T07:14:44;100.82;;;53.22;;
63738;SDS011;68816;45.558;10.070;2024-02-04T07:17:10;102.90;;;52.45;;
63738;SDS011;68816;45.558;10.070;2024-02-04T07:19:38;99.95;;;52.22;;
63738;SDS011;68816;45.558;10.070;2024-02-04T07:22:04;105.70;;;53.40;;
63738;SDS011;68816;45.558;10.070;2024-02-04T07:24:29;103.78;;;54.10;;
63738;SDS011;68816;45.558;10.070;2024-02-04T07:26:55;109.25;;;55.58;;
63738;SDS011;68816;45.558;10.070;2024-02-04T07:29:20;111.65;;;54.60;;
63738;SDS011;68816;45.558;10.070;2024-02-04T07:31:46;98.72;;;52.55;;
63738;SDS011;68816;45.558;10.070;2024-02-04T07:34:12;107.88;;;54.97;;
63738;SDS011;68816;45.558;10.070;2024-02-04T07:36:37;105.65;;;55.67;;
63738;SDS011;68816;45.558;10.070;2024-02-04T07:39:03;102.85;;;54.33;;
63738;SDS011;68816;45.558;10.070;2024-02-04T07:41:30;108.65;;;54.53;;
63738;SDS011;68816;45.558;10.070;2024-02-04T07:43:57;104.47;;;52.65;;
63738;SDS011;68816;45.558;10.070;2024-02-04T07:46:22;104.60;;;53.17;;
63738;SDS011;68816;45.558;10.070;2024-02-04T07:48:48;113.75;;;55.15;;
63738;SDS011;68816;45.558;10.070;2024-02-04T07:51:14;113.90;;;57.08;;
63738;SDS011;68816;45.558;10.070;2024-02-04T07:53:40;112.82;;;56.47;;
63738;SDS011;68816;45.558;10.070;2024-02-04T07:56:06;111.93;;;56.70;;
63738;SDS011;68816;45.558;10.070;2024-02-04T07:58:32;117.43;;;57.08;;
63738;SDS011;68816;45.558;10.070;2024-02-04T08:00:58;116.97;;;58.25;;
63738;SDS011;68816;45.558;10.070;2024-02-04T08:03:24;119.40;;;58.85;;
63738;SDS011;68816;45.558;10.070;2024-02-04T08:13:43;126.63;;;63.75;;
63738;SDS011;68816;45.558;10.070;2024-02-04T08:16:42;132.35;;;63.97;;
63738;SDS011;68816;45.558;10.070;2024-02-04T08:19:08;126.82;;;64.07;;
63738;SDS011;68816;45.558;10.070;2024-02-04T08:21:34;127.00;;;63.75;;
63738;SDS011;68816;45.558;10.070;2024-02-04T08:24:00;127.25;;;62.17;;
63738;SDS011;68816;45.558;10.070;2024-02-04T08:26:26;125.45;;;63.15;;
63738;SDS011;68816;45.558;10.070;2024-02-04T08:28:51;125.95;;;63.33;;
63738;SDS011;68816;45.558;10.070;2024-02-04T08:31:17;125.80;;;63.80;;
63738;SDS011;68816;45.558;10.070;2024-02-04T08:33:43;124.03;;;64.25;;
63738;SDS011;68816;45.558;10.070;2024-02-04T08:36:08;120.82;;;62.13;;
63738;SDS011;68816;45.558;10.070;2024-02-04T08:38:36;120.40;;;60.63;;
63738;SDS011;68816;45.558;10.070;2024-02-04T08:41:03;124.97;;;64.10;;
63738;SDS011;68816;45.558;10.070;2024-02-04T08:43:29;129.13;;;65.75;;
63738;SDS011;68816;45.558;10.070;2024-02-04T08:45:54;122.20;;;63.22;;
63738;SDS011;68816;45.558;10.070;2024-02-04T08:48:20;126.28;;;64.20;;
63738;SDS011;68816;45.558;10.070;2024-02-04T08:50:46;124.40;;;64.18;;
63738;SDS011;68816;45.558;10.070;2024-02-04T08:53:12;129.40;;;66.93;;
63738;SDS011;68816;45.558;10.070;2024-02-04T08:55:37;127.75;;;64.07;;
63738;SDS011;68816;45.558;10.070;2024-02-04T08:58:03;139.55;;;69.82;;
63738;SDS011;68816;45.558;10.070;2024-02-04T09:00:29;131.68;;;67.45;;
63738;SDS011;68816;45.558;10.070;2024-02-04T09:02:54;154.98;;;77.18;;
63738;SDS011;68816;45.558;10.070;2024-02-04T09:05:20;156.90;;;77.25;;
63738;SDS011;68816;45.558;10.070;2024-02-04T09:10:36;159.98;;;80.45;;
63738;SDS011;68816;45.558;10.070;2024-02-04T09:13:01;165.80;;;83.85;;
63738;SDS011;68816;45.558;10.070;2024-02-04T09:15:27;164.07;;;85.00;;
63738;SDS011;68816;45.558;10.070;2024-02-04T09:17:53;168.05;;;86.80;;
63738;SDS011;68816;45.558;10.070;2024-02-04T09:20:18;172.48;;;86.88;;
63738;SDS011;68816;45.558;10.070;2024-02-04T09:22:44;167.95;;;86.72;;
63738;SDS011;68816;45.558;10.070;2024-02-04T09:25:10;180.30;;;89.20;;
63738;SDS011;68816;45.558;10.070;2024-02-04T09:27:35;170.15;;;91.70;;
63738;SDS011;68816;45.558;10.070;2024-02-04T09:30:02;167.95;;;88.38;;
63738;SDS011;68816;45.558;10.070;2024-02-04T09:32:27;176.68;;;91.93;;
63738;SDS011;68816;45.558;10.070;2024-02-04T09:34:54;184.88;;;93.18;;
63738;SDS011;68816;45.558;10.070;2024-02-04T09:37:19;185.90;;;96.07;;
63738;SDS011;68816;45.558;10.070;2024-02-04T09:39:47;182.52;;;95.70;;
63738;SDS011;68816;45.558;10.070;2024-02-04T09:42:15;187.05;;;99.53;;
63738;SDS011;68816;45.558;10.070;2024-02-04T09:44:46;184.40;;;96.83;;
63738;SDS011;68816;45.558;10.070;2024-02-04T09:47:13;189.73;;;99.05;;
63738;SDS011;68816;45.558;10.070;2024-02-04T09:49:39;188.05;;;100.78;;
63738;SDS011;68816;45.558;10.070;2024-02-04T09:52:07;193.75;;;99.07;;
63738;SDS011;68816;45.558;10.070;2024-02-04T09:54:42;190.90;;;99.65;;
63738;SDS011;68816;45.558;10.070;2024-02-04T09:57:11;199.02;;;104.28;;
63738;SDS011;68816;45.558;10.070;2024-02-04T09:59:38;187.63;;;101.60;;
63738;SDS011;68816;45.558;10.070;2024-02-04T10:02:04;190.88;;;102.20;;
63738;SDS011;68816;45.558;10.070;2024-02-04T10:04:31;188.15;;;101.78;;
63738;SDS011;68816;45.558;10.070;2024-02-04T10:06:56;198.93;;;105.47;;
63738;SDS011;68816;45.558;10.070;2024-02-04T10:09:22;199.88;;;104.07;;
63738;SDS011;68816;45.558;10.070;2024-02-04T10:11:48;198.25;;;106.35;;
63738;SDS011;68816;45.558;10.070;2024-02-04T10:14:13;196.07;;;103.63;;
63738;SDS011;68816;45.558;10.070;2024-02-04T10:16:41;202.82;;;105.45;;
63738;SDS011;68816;45.558;10.070;2024-02-04T10:19:06;201.20;;;104.72;;
63738;SDS011;68816;45.558;10.070;2024-02-04T10:21:32;190.57;;;104.70;;
63738;SDS011;68816;45.558;10.070;2024-02-04T10:23:58;205.98;;;108.65;;
63738;SDS011;68816;45.558;10.070;2024-02-04T10:26:24;199.55;;;106.00;;
63738;SDS011;68816;45.558;10.070;2024-02-04T10:28:59;187.23;;;101.78;;
63738;SDS011;68816;45.558;10.070;2024-02-04T10:31:25;197.52;;;102.55;;
63738;SDS011;68816;45.558;10.070;2024-02-04T10:33:52;187.63;;;97.18;;
63738;SDS011;68816;45.558;10.070;2024-02-04T10:36:17;193.13;;;105.75;;
63738;SDS011;68816;45.558;10.070;2024-02-04T10:38:43;193.23;;;106.00;;
63738;SDS011;68816;45.558;10.070;2024-02-04T10:41:11;185.57;;;103.63;;
63738;SDS011;68816;45.558;10.070;2024-02-04T10:43:39;195.65;;;106.50;;
63738;SDS011;68816;45.558;10.070;2024-02-04T10:49:00;188.30;;;103.63;;
63738;SDS011;68816;45.558;10.070;2024-02-04T10:51:28;192.30;;;104.38;;
63738;SDS011;68816;45.558;10.070;2024-02-04T10:53:56;179.73;;;98.15;;
63738;SDS011;68816;45.558;10.070;2024-02-04T10:59:00;190.07;;;104.30;;
63738;SDS011;68816;45.558;10.070;2024-02-04T11:01:28;182.75;;;101.85;;
63738;SDS011;68816;45.558;10.070;2024-02-04T11:03:54;183.52;;;99.82;;
63738;SDS011;68816;45.558;10.070;2024-02-04T11:06:20;185.23;;;101.72;;
63738;SDS011;68816;45.558;10.070;2024-02-04T11:08:48;180.65;;;100.25;;
63738;SDS011;68816;45.558;10.070;2024-02-04T11:11:17;174.43;;;94.38;;
63738;SDS011;68816;45.558;10.070;2024-02-04T11:13:44;160.13;;;88.40;;
63738;SDS011;68816;45.558;10.070;2024-02-04T11:25:09;164.45;;;92.65;;
63738;SDS011;68816;45.558;10.070;2024-02-04T11:27:45;169.68;;;94.70;;
63738;SDS011;68816;45.558;10.070;2024-02-04T11:30:11;164.48;;;92.32;;
63738;SDS011;68816;45.558;10.070;2024-02-04T11:32:37;130.80;;;64.00;;
63738;SDS011;68816;45.558;10.070;2024-02-04T11:35:03;150.85;;;85.75;;
63738;SDS011;68816;45.558;10.070;2024-02-04T11:37:32;147.32;;;86.10;;
63738;SDS011;68816;45.558;10.070;2024-02-04T11:39:58;137.10;;;78.40;;
63738;SDS011;68816;45.558;10.070;2024-02-04T11:42:24;131.60;;;77.05;;
63738;SDS011;68816;45.558;10.070;2024-02-04T11:45:05;125.40;;;73.53;;
63738;SDS011;68816;45.558;10.070;2024-02-04T11:47:33;138.05;;;79.65;;
63738;SDS011;68816;45.558;10.070;2024-02-04T11:50:00;130.35;;;80.82;;
63738;SDS011;68816;45.558;10.070;2024-02-04T11:52:29;125.43;;;73.15;;
63738;SDS011;68816;45.558;10.070;2024-02-04T11:54:55;137.88;;;82.72;;
63738;SDS011;68816;45.558;10.070;2024-02-04T11:57:21;137.90;;;83.45;;
63738;SDS011;68816;45.558;10.070;2024-02-04T11:59:48;113.65;;;71.75;;
63738;SDS011;68816;45.558;10.070;2024-02-04T12:02:16;110.63;;;64.88;;
63738;SDS011;68816;45.558;10.070;2024-02-04T12:04:45;104.65;;;67.22;;
63738;SDS011;68816;45.558;10.070;2024-02-04T12:07:15;104.82;;;64.93;;
63738;SDS011;68816;45.558;10.070;2024-02-04T12:09:42;108.32;;;62.50;;
63738;SDS011;68816;45.558;10.070;2024-02-04T12:12:09;107.07;;;62.63;;
63738;SDS011;68816;45.558;10.070;2024-02-04T12:14:35;83.43;;;50.67;;
63738;SDS011;68816;45.558;10.070;2024-02-04T12:17:09;96.50;;;57.85;;
63738;SDS011;68816;45.558;10.070;2024-02-04T12:19:35;88.18;;;52.10;;
63738;SDS011;68816;45.558;10.070;2024-02-04T12:22:02;80.30;;;51.80;;
63738;SDS011;68816;45.558;10.070;2024-02-04T12:24:34;65.82;;;40.20;;
63738;SDS011;68816;45.558;10.070;2024-02-04T12:27:04;53.17;;;31.23;;
63738;SDS011;68816;45.558;10.070;2024-02-04T12:29:30;67.15;;;41.08;;
63738;SDS011;68816;45.558;10.070;2024-02-04T12:31:58;66.32;;;40.65;;
63738;SDS011;68816;45.558;10.070;2024-02-04T12:34:28;49.47;;;31.38;;
63738;SDS011;68816;45.558;10.070;2024-02-04T12:36:57;61.47;;;40.20;;
63738;SDS011;68816;45.558;10.070;2024-02-04T12:39:26;64.88;;;42.60;;
63738;SDS011;68816;45.558;10.070;2024-02-04T12:41:53;69.97;;;43.75;;
63738;SDS011;68816;45.558;10.070;2024-02-04T12:44:19;67.88;;;42.83;;
63738;SDS011;68816;45.558;10.070;2024-02-04T12:46:45;68.03;;;44.55;;
63738;SDS011;68816;45.558;10.070;2024-02-04T12:49:17;69.88;;;44.58;;
63738;SDS011;68816;45.558;10.070;2024-02-04T12:51:45;67.45;;;43.15;;
63738;SDS011;68816;45.558;10.070;2024-02-04T12:54:11;55.80;;;34.25;;
63738;SDS011;68816;45.558;10.070;2024-02-04T12:56:45;63.22;;;39.47;;
63738;SDS011;68816;45.558;10.070;2024-02-04T12:59:23;63.70;;;40.60;;
63738;SDS011;68816;45.558;10.070;2024-02-04T13:01:53;63.78;;;43.30;;
63738;SDS011;68816;45.558;10.070;2024-02-04T13:04:23;64.03;;;40.97;;
63738;SDS011;68816;45.558;10.070;2024-02-04T13:06:50;58.70;;;36.58;;
63738;SDS011;68816;45.558;10.070;2024-02-04T13:09:16;59.50;;;41.17;;
63738;SDS011;68816;45.558;10.070;2024-02-04T13:11:42;57.75;;;37.92;;
63738;SDS011;68816;45.558;10.070;2024-02-04T13:14:08;59.15;;;41.95;;
63738;SDS011;68816;45.558;10.070;2024-02-04T13:16:34;63.13;;;37.47;;
63738;SDS011;68816;45.558;10.070;2024-02-04T13:19:03;45.53;;;23.92;;
63738;SDS011;68816;45.558;10.070;2024-02-04T13:21:30;59.03;;;33.42;;
63738;SDS011;68816;45.558;10.070;2024-02-04T13:23:59;63.25;;;42.78;;
63738;SDS011;68816;45.558;10.070;2024-02-04T13:26:24;65.32;;;43.63;;
63738;SDS011;68816;45.558;10.070;2024-02-04T13:28:51;71.72;;;44.90;;
63738;SDS011;68816;45.558;10.070;2024-02-04T13:31:17;62.72;;;39.53;;
63738;SDS011;68816;45.558;10.070;2024-02-04T13:33:42;69.53;;;47.13;;
63738;SDS011;68816;45.558;10.070;2024-02-04T13:36:08;64.60;;;39.20;;
63738;SDS011;68816;45.558;10.070;2024-02-04T13:38:35;71.20;;;45.80;;
63738;SDS011;68816;45.558;10.070;2024-02-04T13:41:01;65.70;;;44.40;;
63738;SDS011;68816;45.558;10.070;2024-02-04T13:43:29;68.55;;;45.60;;
63738;SDS011;68816;45.558;10.070;2024-02-04T13:45:55;70.53;;;48.30;;
63738;SDS011;68816;45.558;10.070;2024-02-04T13:48:21;66.55;;;46.78;;
63738;SDS011;68816;45.558;10.070;2024-02-04T13:50:47;67.82;;;40.67;;
63738;SDS011;68816;45.558;10.070;2024-02-04T13:53:13;65.75;;;43.70;;
63738;SDS011;68816;45.558;10.070;2024-02-04T13:55:39;69.05;;;41.72;;
63738;SDS011;68816;45.558;10.070;2024-02-04T13:58:05;54.53;;;32.00;;
63738;SDS011;68816;45.558;10.070;2024-02-04T14:00:31;75.22;;;46.10;;
63738;SDS011;68816;45.558;10.070;2024-02-04T14:02:57;64.72;;;41.38;;
63738;SDS011;68816;45.558;10.070;2024-02-04T14:05:23;73.45;;;47.45;;
63738;SDS011;68816;45.558;10.070;2024-02-04T14:07:50;74.97;;;50.60;;
63738;SDS011;68816;45.558;10.070;2024-02-04T14:10:16;76.03;;;51.33;;
63738;SDS011;68816;45.558;10.070;2024-02-04T14:12:45;63.85;;;38.75;;
63738;SDS011;68816;45.558;10.070;2024-02-04T14:15:11;75.97;;;49.33;;
63738;SDS011;68816;45.558;10.070;2024-02-04T14:17:37;73.75;;;48.20;;
63738;SDS011;68816;45.558;10.070;2024-02-04T14:20:06;77.65;;;51.88;;
63738;SDS011;68816;45.558;10.070;2024-02-04T14:22:32;71.40;;;45.00;;
63738;SDS011;68816;45.558;10.070;2024-02-04T14:24:58;76.13;;;50.28;;
63738;SDS011;68816;45.558;10.070;2024-02-04T14:27:25;56.10;;;33.10;;
63738;SDS011;68816;45.558;10.070;2024-02-04T14:29:50;76.57;;;48.35;;